Time;durP1;ratioP1;P1;durP2;ratioP2;P2;SDS_P1;SDS_P2;PMS_P1;PMS_P2;Temp;Humidity;BMP_temperature;BMP_pressure;BME280_temperature;BME280_humidity;BME280_pressure;Samples;Min_cycle;Max_cycle;Signal;HPM_P1;HPM_P2
2022/01/08 00:00:53;;;;;;;3.63;2.17;;;;;;;;;;5053665;28;20060;-70
2022/01/08 00:03:19;;;;;;;3.85;2.17;;;;;;;;;;5053897;28;20032;-70
2022/01/08 00:05:44;;;;;;;3.55;2.10;;;;;;;;;;5055354;28;20036;-70
2022/01/08 00:08:09;;;;;;;2.85;1.70;;;;;;;;;;5054583;28;20020;-70
2022/01/08 00:10:35;;;;;;;1.92;1.77;;;;;;;;;;5053472;28;20060;-70
2022/01/08 00:13:05;;;;;;;2.17;1.90;;;;;;;;;;5054495;28;20024;-70
2022/01/08 00:15:30;;;;;;;1.80;1.67;;;;;;;;;;5057809;28;20028;-70
2022/01/08 00:17:56;;;;;;;2.92;2.33;;;;;;;;;;5060932;28;20584;-70
2022/01/08 00:20:21;;;;;;;1.77;1.67;;;;;;;;;;5048109;28;20032;-70
2022/01/08 00:22:50;;;;;;;2.05;1.90;;;;;;;;;;5066774;28;20031;-70
2022/01/08 00:25:15;;;;;;;1.70;1.60;;;;;;;;;;5055689;28;20033;-70
2022/01/08 00:27:41;;;;;;;1.70;1.60;;;;;;;;;;5053547;28;20067;-71
2022/01/08 00:30:06;;;;;;;2.25;1.70;;;;;;;;;;5053132;28;20047;-70
2022/01/08 00:32:32;;;;;;;1.58;1.48;;;;;;;;;;5053065;28;20377;-71
2022/01/08 00:34:57;;;;;;;1.95;1.55;;;;;;;;;;5054263;28;20070;-71
2022/01/08 00:37:22;;;;;;;1.70;1.35;;;;;;;;;;5054083;28;20119;-70
2022/01/08 00:39:48;;;;;;;1.65;1.50;;;;;;;;;;5053775;28;20459;-70
2022/01/08 00:42:14;;;;;;;1.40;1.30;;;;;;;;;;5053308;28;20612;-70
2022/01/08 00:44:40;;;;;;;3.00;1.30;;;;;;;;;;5055584;28;20028;-70
2022/01/08 00:47:05;;;;;;;1.88;1.48;;;;;;;;;;5060890;28;20032;-70
2022/01/08 00:49:30;;;;;;;3.20;1.33;;;;;;;;;;5061447;28;20021;-70
2022/01/08 00:51:55;;;;;;;1.23;1.10;;;;;;;;;;5057994;28;20068;-70
2022/01/08 00:54:21;;;;;;;4.63;1.23;;;;;;;;;;5059044;28;20053;-70
2022/01/08 00:56:46;;;;;;;0.90;0.90;;;;;;;;;;5064097;28;20055;-70
2022/01/08 00:59:13;;;;;;;1.20;1.05;;;;;;;;;;5058302;28;20052;-70
2022/01/08 01:01:39;;;;;;;0.80;0.80;;;;;;;;;;5059900;28;20399;-70
2022/01/08 01:04:04;;;;;;;2.45;1.10;;;;;;;;;;5059323;28;20028;-70
2022/01/08 01:06:29;;;;;;;0.73;0.73;;;;;;;;;;5053924;28;20023;-71
2022/01/08 01:08:55;;;;;;;1.70;0.63;;;;;;;;;;5054467;28;20086;-70
2022/01/08 01:11:20;;;;;;;1.42;0.90;;;;;;;;;;5054113;28;20021;-70
2022/01/08 01:13:45;;;;;;;0.80;0.80;;;;;;;;;;5052280;28;20037;-70
2022/01/08 01:16:10;;;;;;;0.88;0.88;;;;;;;;;;5052184;28;20110;-70
2022/01/08 01:18:37;;;;;;;2.03;0.80;;;;;;;;;;5055157;28;20071;-70
2022/01/08 01:21:02;;;;;;;2.92;0.60;;;;;;;;;;5053614;28;20609;-71
2022/01/08 01:23:34;;;;;;;0.80;0.80;;;;;;;;;;5053485;28;20058;-70
2022/01/08 01:26:03;;;;;;;1.13;0.60;;;;;;;;;;5060812;28;20039;-70
2022/01/08 01:28:49;;;;;;;1.17;0.70;;;;;;;;;;5061385;28;20097;-71
2022/01/08 01:47:16;;;;;;;1.45;0.90;;;;;;;;;;5064361;28;20086;-70
2022/01/08 01:49:43;;;;;;;0.65;0.65;;;;;;;;;;5064112;28;20044;-70
2022/01/08 01:52:10;;;;;;;1.73;1.10;;;;;;;;;;5061325;28;20029;-71
2022/01/08 01:54:36;;;;;;;0.93;0.93;;;;;;;;;;5062202;28;20035;-70
2022/01/08 01:57:02;;;;;;;1.05;0.80;;;;;;;;;;5061960;28;20021;-70
2022/01/08 01:59:27;;;;;;;0.68;0.68;;;;;;;;;;5063384;28;20051;-70
2022/01/08 02:01:53;;;;;;;0.73;0.70;;;;;;;;;;5061680;28;20044;-70
2022/01/08 02:04:18;;;;;;;0.70;0.70;;;;;;;;;;5067373;28;20086;-70
2022/01/08 02:06:44;;;;;;;0.75;0.57;;;;;;;;;;5063716;28;20462;-69
2022/01/08 02:09:09;;;;;;;1.95;0.80;;;;;;;;;;5064362;28;20107;-69
2022/01/08 02:11:54;;;;;;;0.75;0.75;;;;;;;;;;5068472;28;20058;-69
2022/01/08 02:14:19;;;;;;;1.45;0.77;;;;;;;;;;5067296;28;20039;-69
2022/01/08 02:16:44;;;;;;;2.40;0.80;;;;;;;;;;5062558;28;20032;-69
2022/01/08 02:19:09;;;;;;;3.03;0.70;;;;;;;;;;5064766;28;20035;-69
2022/01/08 02:21:35;;;;;;;1.05;0.90;;;;;;;;;;5065098;28;20024;-69
2022/01/08 02:24:00;;;;;;;0.80;0.80;;;;;;;;;;5062803;28;20383;-69
2022/01/08 02:26:25;;;;;;;0.82;0.82;;;;;;;;;;5062382;28;20498;-69
2022/01/08 02:28:51;;;;;;;0.98;0.90;;;;;;;;;;5061531;28;20043;-69
2022/01/08 02:31:20;;;;;;;0.55;0.55;;;;;;;;;;5061453;28;20028;-69
2022/01/08 02:33:46;;;;;;;1.00;0.80;;;;;;;;;;5067113;28;20029;-68
2022/01/08 02:36:11;;;;;;;2.38;1.10;;;;;;;;;;5062481;28;20029;-69
2022/01/08 02:38:36;;;;;;;1.15;0.90;;;;;;;;;;5062641;28;20037;-69
2022/01/08 02:41:04;;;;;;;0.80;0.80;;;;;;;;;;5067309;28;20107;-69
2022/01/08 02:43:33;;;;;;;0.90;0.90;;;;;;;;;;5063178;28;20029;-68
2022/01/08 02:45:58;;;;;;;0.80;0.80;;;;;;;;;;5063713;28;20060;-69
2022/01/08 02:48:24;;;;;;;0.75;0.75;;;;;;;;;;5064348;28;20056;-69
2022/01/08 02:50:49;;;;;;;1.02;0.73;;;;;;;;;;5063885;28;20451;-69
2022/01/08 02:53:14;;;;;;;0.65;0.57;;;;;;;;;;5062463;28;20036;-69
2022/01/08 02:55:40;;;;;;;0.65;0.65;;;;;;;;;;5060908;28;20083;-69
2022/01/08 02:58:05;;;;;;;0.50;0.50;;;;;;;;;;5063214;28;20028;-69
2022/01/08 03:00:30;;;;;;;1.23;0.80;;;;;;;;;;5078175;28;20136;-68
2022/01/08 03:02:55;;;;;;;1.48;1.10;;;;;;;;;;5063139;28;20060;-69
2022/01/08 03:05:21;;;;;;;2.50;0.80;;;;;;;;;;5062682;28;20390;-68
2022/01/08 03:07:47;;;;;;;1.05;0.80;;;;;;;;;;5062630;28;20482;-68
2022/01/08 03:10:14;;;;;;;1.25;1.00;;;;;;;;;;5062764;28;20110;-69
2022/01/08 03:12:41;;;;;;;1.00;0.90;;;;;;;;;;5067645;28;20122;-69
2022/01/08 03:15:07;;;;;;;0.90;0.85;;;;;;;;;;5066987;28;20486;-68
2022/01/08 03:17:33;;;;;;;0.70;0.70;;;;;;;;;;5063059;28;20028;-69
2022/01/08 03:20:04;;;;;;;0.85;0.70;;;;;;;;;;5061705;28;20631;-71
2022/01/08 03:22:30;;;;;;;1.40;1.10;;;;;;;;;;5062546;28;20036;-71
2022/01/08 03:24:55;;;;;;;0.90;0.90;;;;;;;;;;5047626;28;20028;-70
2022/01/08 03:27:20;;;;;;;0.93;0.93;;;;;;;;;;5062260;28;20075;-69
2022/01/08 03:29:45;;;;;;;0.73;0.73;;;;;;;;;;5068082;28;20434;-69
2022/01/08 03:32:11;;;;;;;0.82;0.80;;;;;;;;;;5062215;28;20530;-69
2022/01/08 03:34:36;;;;;;;0.80;0.80;;;;;;;;;;5061627;28;20061;-69
2022/01/08 03:37:01;;;;;;;0.90;0.68;;;;;;;;;;5060551;28;20074;-68
2022/01/08 03:39:27;;;;;;;1.20;0.70;;;;;;;;;;5062728;28;20292;-69
2022/01/08 03:41:52;;;;;;;2.40;0.82;;;;;;;;;;5061530;28;20056;-69
2022/01/08 03:44:18;;;;;;;0.93;0.82;;;;;;;;;;5060498;28;20059;-69
2022/01/08 03:46:43;;;;;;;0.98;0.88;;;;;;;;;;5065615;28;20059;-69
2022/01/08 03:49:22;;;;;;;0.68;0.68;;;;;;;;;;5061916;28;20285;-69
2022/01/08 03:51:48;;;;;;;0.80;0.80;;;;;;;;;;5062510;28;20028;-69
2022/01/08 03:54:13;;;;;;;0.80;0.80;;;;;;;;;;5060240;28;20037;-69
2022/01/08 03:56:39;;;;;;;0.60;0.60;;;;;;;;;;5059763;28;20105;-69
2022/01/08 03:59:04;;;;;;;0.90;0.90;;;;;;;;;;5062072;28;20075;-69
2022/01/08 04:01:29;;;;;;;0.50;0.50;;;;;;;;;;5059375;28;20117;-69
2022/01/08 04:03:55;;;;;;;0.60;0.60;;;;;;;;;;5065996;28;20067;-69
2022/01/08 04:06:20;;;;;;;0.85;0.80;;;;;;;;;;5061711;28;20152;-69
2022/01/08 04:08:45;;;;;;;0.65;0.65;;;;;;;;;;5060648;28;20031;-68
2022/01/08 04:11:11;;;;;;;0.55;0.55;;;;;;;;;;5062467;28;20032;-71
2022/01/08 04:13:39;;;;;;;0.70;0.70;;;;;;;;;;5066800;28;20110;-69
2022/01/08 04:16:12;;;;;;;0.70;0.70;;;;;;;;;;5065158;28;20056;-69
2022/01/08 04:18:38;;;;;;;0.68;0.68;;;;;;;;;;5059595;28;20442;-69
2022/01/08 04:21:42;;;;;;;0.60;0.60;;;;;;;;;;5066065;28;20032;-69
2022/01/08 04:23:55;;;;;;;0.70;0.70;;;;;;;;;;5060945;28;20070;-70
2022/01/08 04:26:22;;;;;;;0.95;0.90;;;;;;;;;;5064421;28;20032;-69
2022/01/08 04:28:48;;;;;;;0.60;0.60;;;;;;;;;;5065098;28;20518;-69
2022/01/08 04:31:13;;;;;;;1.13;0.60;;;;;;;;;;5059508;28;20056;-69
2022/01/08 04:33:39;;;;;;;0.45;0.45;;;;;;;;;;5048695;28;20082;-71
2022/01/08 04:36:04;;;;;;;1.95;0.60;;;;;;;;;;5054488;28;20040;-69
2022/01/08 04:38:29;;;;;;;0.73;0.73;;;;;;;;;;5054263;28;20111;-69
2022/01/08 04:40:55;;;;;;;0.40;0.40;;;;;;;;;;5053739;28;20072;-69
2022/01/08 04:43:21;;;;;;;0.85;0.80;;;;;;;;;;5054390;28;20040;-69
2022/01/08 04:45:49;;;;;;;0.60;0.60;;;;;;;;;;5054268;28;20036;-71
2022/01/08 04:48:14;;;;;;;2.83;0.82;;;;;;;;;;5054437;28;20437;-69
2022/01/08 04:50:40;;;;;;;0.80;0.80;;;;;;;;;;5053268;28;20032;-71
2022/01/08 04:53:05;;;;;;;2.47;0.80;;;;;;;;;;5054037;28;20083;-68
2022/01/08 04:55:30;;;;;;;1.13;0.90;;;;;;;;;;5058587;28;20141;-71
2022/01/08 04:57:55;;;;;;;0.88;0.88;;;;;;;;;;5063354;28;20454;-71
2022/01/08 05:00:21;;;;;;;1.52;1.13;;;;;;;;;;5057587;28;20395;-68
2022/01/08 05:02:46;;;;;;;1.63;1.10;;;;;;;;;;5058454;28;20580;-71
2022/01/08 05:05:12;;;;;;;0.57;0.57;;;;;;;;;;5058333;28;20463;-69
2022/01/08 05:07:37;;;;;;;2.45;0.70;;;;;;;;;;5059961;28;20021;-68
2022/01/08 05:10:04;;;;;;;1.48;0.85;;;;;;;;;;5058659;28;20043;-69
2022/01/08 05:12:29;;;;;;;2.05;0.95;;;;;;;;;;5059064;28;20033;-71
2022/01/08 05:14:56;;;;;;;1.15;1.05;;;;;;;;;;5058368;28;20036;-69
2022/01/08 05:17:27;;;;;;;0.80;0.80;;;;;;;;;;5060098;28;20025;-69
2022/01/08 05:19:53;;;;;;;0.70;0.70;;;;;;;;;;5062412;28;20029;-69
2022/01/08 05:22:24;;;;;;;1.52;0.70;;;;;;;;;;5059579;28;20024;-71
2022/01/08 05:24:49;;;;;;;0.70;0.70;;;;;;;;;;5058995;28;20124;-69
2022/01/08 05:27:17;;;;;;;1.20;0.80;;;;;;;;;;5057354;28;20112;-69
2022/01/08 05:29:46;;;;;;;1.17;0.90;;;;;;;;;;5057951;28;20056;-69
2022/01/08 05:32:18;;;;;;;2.30;1.13;;;;;;;;;;5060178;28;20055;-69
2022/01/08 05:34:47;;;;;;;1.27;0.90;;;;;;;;;;5055718;28;20715;-69
2022/01/08 05:37:13;;;;;;;1.67;1.15;;;;;;;;;;5052945;28;20029;-69
2022/01/08 05:39:38;;;;;;;2.25;0.80;;;;;;;;;;5053377;28;20156;-71
2022/01/08 05:42:03;;;;;;;0.60;0.60;;;;;;;;;;5053276;28;20025;-69
2022/01/08 05:44:29;;;;;;;1.10;0.75;;;;;;;;;;5054024;28;20029;-68
2022/01/08 05:46:54;;;;;;;0.70;0.70;;;;;;;;;;5057479;28;20519;-69
2022/01/08 05:49:19;;;;;;;1.17;0.80;;;;;;;;;;5060834;28;20522;-69
2022/01/08 05:51:45;;;;;;;2.55;0.82;;;;;;;;;;5058417;28;20091;-69
2022/01/08 05:54:10;;;;;;;1.92;0.70;;;;;;;;;;5057583;28;20471;-69
2022/01/08 05:56:35;;;;;;;1.10;0.70;;;;;;;;;;5063744;28;20139;-69
2022/01/08 05:59:00;;;;;;;1.83;0.70;;;;;;;;;;5063638;28;20052;-71
2022/01/08 06:01:26;;;;;;;0.60;0.60;;;;;;;;;;5062724;28;20455;-71
2022/01/08 06:03:51;;;;;;;0.70;0.70;;;;;;;;;;5061049;28;20530;-69
2022/01/08 06:06:17;;;;;;;0.60;0.60;;;;;;;;;;5063526;28;20507;-71
2022/01/08 06:08:42;;;;;;;0.68;0.68;;;;;;;;;;5059870;28;20410;-71
2022/01/08 06:11:07;;;;;;;0.52;0.52;;;;;;;;;;5058551;28;20532;-69
2022/01/08 06:13:33;;;;;;;0.60;0.60;;;;;;;;;;5058523;28;20714;-71
2022/01/08 06:15:58;;;;;;;5.03;0.75;;;;;;;;;;5059756;28;20387;-71
2022/01/08 06:18:23;;;;;;;0.60;0.60;;;;;;;;;;5060584;28;20487;-70
2022/01/08 06:20:49;;;;;;;1.10;0.85;;;;;;;;;;5059324;28;20082;-71
2022/01/08 06:23:14;;;;;;;0.52;0.52;;;;;;;;;;5058233;28;20465;-71
2022/01/08 06:25:43;;;;;;;0.63;0.63;;;;;;;;;;5061676;28;20573;-71
2022/01/08 06:28:09;;;;;;;0.43;0.43;;;;;;;;;;5063534;28;20021;-70
2022/01/08 06:30:34;;;;;;;0.50;0.50;;;;;;;;;;5060776;28;20064;-70
2022/01/08 06:32:59;;;;;;;0.55;0.52;;;;;;;;;;5067748;28;20024;-71
2022/01/08 06:35:25;;;;;;;0.52;0.52;;;;;;;;;;5058928;28;20168;-70
2022/01/08 06:37:50;;;;;;;0.50;0.50;;;;;;;;;;5062333;28;20021;-71
2022/01/08 06:40:15;;;;;;;0.40;0.40;;;;;;;;;;5056333;28;20035;-70
2022/01/08 06:42:41;;;;;;;1.02;0.50;;;;;;;;;;5055683;28;20056;-70
2022/01/08 06:45:06;;;;;;;0.47;0.45;;;;;;;;;;5055799;28;20060;-70
2022/01/08 06:47:33;;;;;;;0.40;0.40;;;;;;;;;;5055707;28;20063;-70
2022/01/08 06:49:59;;;;;;;6.13;0.85;;;;;;;;;;5058966;28;20386;-70
2022/01/08 06:52:24;;;;;;;0.50;0.50;;;;;;;;;;5055862;28;20044;-70
2022/01/08 06:54:49;;;;;;;0.50;0.50;;;;;;;;;;5057019;28;20036;-70
2022/01/08 06:57:14;;;;;;;0.40;0.40;;;;;;;;;;5059083;28;20373;-69
2022/01/08 06:59:40;;;;;;;0.75;0.45;;;;;;;;;;5046223;28;20463;-69
2022/01/08 07:02:05;;;;;;;0.30;0.30;;;;;;;;;;5061157;28;20106;-70
2022/01/08 07:04:30;;;;;;;0.32;0.32;;;;;;;;;;5062671;28;20055;-70
2022/01/08 07:06:56;;;;;;;0.30;0.30;;;;;;;;;;5066467;28;20078;-69
2022/01/08 07:09:22;;;;;;;0.60;0.50;;;;;;;;;;5062596;28;20499;-70
2022/01/08 07:11:47;;;;;;;0.40;0.40;;;;;;;;;;5065704;28;20178;-70
2022/01/08 07:14:12;;;;;;;0.30;0.30;;;;;;;;;;5057538;28;20028;-69
2022/01/08 07:16:38;;;;;;;1.38;0.70;;;;;;;;;;5060256;28;20025;-70
2022/01/08 07:19:03;;;;;;;0.50;0.50;;;;;;;;;;5060179;28;20033;-69
2022/01/08 07:21:28;;;;;;;0.85;0.85;;;;;;;;;;5066399;28;20024;-70
2022/01/08 07:23:54;;;;;;;0.70;0.70;;;;;;;;;;5062216;28;20055;-69
2022/01/08 07:26:19;;;;;;;0.60;0.57;;;;;;;;;;5058115;28;20616;-69
2022/01/08 07:28:45;;;;;;;0.50;0.50;;;;;;;;;;5055153;28;21480;-70
2022/01/08 07:31:10;;;;;;;0.70;0.70;;;;;;;;;;5053887;28;20029;-69
2022/01/08 07:33:35;;;;;;;0.55;0.55;;;;;;;;;;5054979;28;20290;-70
2022/01/08 07:36:01;;;;;;;0.60;0.60;;;;;;;;;;5058334;28;20029;-69
2022/01/08 07:38:26;;;;;;;0.75;0.68;;;;;;;;;;5062254;28;20047;-69
2022/01/08 07:40:52;;;;;;;0.75;0.75;;;;;;;;;;5060487;28;20191;-70
2022/01/08 07:43:18;;;;;;;0.60;0.60;;;;;;;;;;5060394;28;20021;-70
2022/01/08 07:45:44;;;;;;;0.60;0.60;;;;;;;;;;5060983;28;20033;-69
2022/01/08 07:48:09;;;;;;;6.75;0.70;;;;;;;;;;5061802;28;20025;-69
2022/01/08 07:50:34;;;;;;;0.60;0.60;;;;;;;;;;5062009;28;20025;-69
2022/01/08 07:52:59;;;;;;;0.60;0.60;;;;;;;;;;5065159;28;20129;-69
2022/01/08 07:55:25;;;;;;;0.55;0.55;;;;;;;;;;5048746;28;20111;-69
2022/01/08 07:57:50;;;;;;;3.08;0.90;;;;;;;;;;5062374;28;20064;-69
2022/01/08 08:00:15;;;;;;;1.23;0.60;;;;;;;;;;5066578;28;20060;-69
2022/01/08 08:02:41;;;;;;;0.73;0.50;;;;;;;;;;5061714;28;20040;-69
2022/01/08 08:05:06;;;;;;;0.80;0.80;;;;;;;;;;5060789;28;20037;-69
2022/01/08 08:07:38;;;;;;;0.73;0.73;;;;;;;;;;5060215;28;20016;-69
2022/01/08 08:10:17;;;;;;;0.50;0.50;;;;;;;;;;5065088;28;20565;-69
2022/01/08 08:12:42;;;;;;;0.70;0.70;;;;;;;;;;5063101;28;20381;-69
2022/01/08 08:15:08;;;;;;;1.02;0.80;;;;;;;;;;5065442;28;20031;-69
2022/01/08 08:17:33;;;;;;;0.75;0.75;;;;;;;;;;5062031;28;20107;-69
2022/01/08 08:20:00;;;;;;;2.47;0.80;;;;;;;;;;5057291;28;20135;-70
2022/01/08 08:22:25;;;;;;;0.70;0.70;;;;;;;;;;5059984;28;20415;-69
2022/01/08 08:24:50;;;;;;;1.35;0.68;;;;;;;;;;5065004;28;20036;-69
2022/01/08 08:27:16;;;;;;;0.73;0.73;;;;;;;;;;5061283;28;20024;-69
2022/01/08 08:29:41;;;;;;;1.08;1.08;;;;;;;;;;5058284;28;20040;-69
2022/01/08 08:32:07;;;;;;;1.10;1.10;;;;;;;;;;5064682;28;20040;-69
2022/01/08 08:34:32;;;;;;;1.13;1.13;;;;;;;;;;5055279;28;20039;-69
2022/01/08 08:36:58;;;;;;;2.05;1.25;;;;;;;;;;5059387;28;20029;-69
2022/01/08 08:39:24;;;;;;;0.95;0.95;;;;;;;;;;5054181;28;20466;-69
2022/01/08 08:41:49;;;;;;;5.05;2.53;;;;;;;;;;5055225;28;20781;-69
2022/01/08 08:44:14;;;;;;;0.77;0.70;;;;;;;;;;5053367;28;20037;-70
2022/01/08 08:46:39;;;;;;;0.73;0.73;;;;;;;;;;5059661;28;20034;-69
2022/01/08 08:49:05;;;;;;;0.63;0.63;;;;;;;;;;5066754;28;20372;-69
2022/01/08 08:51:30;;;;;;;1.17;0.90;;;;;;;;;;5060293;28;20036;-69
2022/01/08 08:53:55;;;;;;;0.80;0.80;;;;;;;;;;5061811;28;20094;-69
2022/01/08 08:56:21;;;;;;;0.77;0.70;;;;;;;;;;5054976;28;20035;-70
2022/01/08 08:58:47;;;;;;;0.88;0.88;;;;;;;;;;5052385;28;20029;-69
2022/01/08 09:01:12;;;;;;;0.90;0.90;;;;;;;;;;5051952;28;20487;-70
2022/01/08 09:03:37;;;;;;;0.60;0.60;;;;;;;;;;5058525;28;20411;-70
2022/01/08 09:06:03;;;;;;;0.63;0.63;;;;;;;;;;5058289;28;20064;-69
2022/01/08 09:08:28;;;;;;;0.70;0.70;;;;;;;;;;5074229;28;20051;-70
2022/01/08 09:10:53;;;;;;;0.70;0.70;;;;;;;;;;5060636;28;20063;-69
2022/01/08 09:13:20;;;;;;;0.90;0.90;;;;;;;;;;5063524;28;20678;-69
2022/01/08 09:15:46;;;;;;;1.38;0.90;;;;;;;;;;5064270;28;20033;-69
2022/01/08 09:18:11;;;;;;;0.80;0.80;;;;;;;;;;5058123;28;20025;-69
2022/01/08 09:20:37;;;;;;;0.80;0.80;;;;;;;;;;5056769;28;20025;-69
2022/01/08 09:23:03;;;;;;;0.80;0.80;;;;;;;;;;5057103;28;20020;-69
2022/01/08 09:25:28;;;;;;;1.55;1.25;;;;;;;;;;5058913;28;20031;-69
2022/01/08 09:27:54;;;;;;;0.77;0.77;;;;;;;;;;5057738;28;20067;-68
2022/01/08 09:30:19;;;;;;;0.93;0.80;;;;;;;;;;5057743;28;20435;-69
2022/01/08 09:32:44;;;;;;;1.27;0.70;;;;;;;;;;5059070;28;20067;-69
2022/01/08 09:35:11;;;;;;;0.90;0.90;;;;;;;;;;5063017;28;20029;-69
2022/01/08 09:37:38;;;;;;;1.27;0.90;;;;;;;;;;5062877;28;20470;-69
2022/01/08 09:40:04;;;;;;;0.90;0.90;;;;;;;;;;5057481;28;20017;-69
2022/01/08 09:42:30;;;;;;;0.85;0.85;;;;;;;;;;5059737;28;20033;-69
2022/01/08 09:44:55;;;;;;;0.90;0.90;;;;;;;;;;5064892;28;20391;-69
2022/01/08 09:47:21;;;;;;;1.00;1.00;;;;;;;;;;5058923;28;20024;-69
2022/01/08 09:49:47;;;;;;;0.90;0.90;;;;;;;;;;5057541;28;20161;-69
2022/01/08 09:52:13;;;;;;;1.30;1.20;;;;;;;;;;5058851;28;20439;-69
2022/01/08 09:54:38;;;;;;;2.35;1.30;;;;;;;;;;5046584;28;20133;-69
2022/01/08 09:57:04;;;;;;;1.23;1.10;;;;;;;;;;5057617;28;20114;-69
2022/01/08 09:59:29;;;;;;;11.30;1.52;;;;;;;;;;5070624;28;20128;-69
2022/01/08 10:01:56;;;;;;;1.70;1.00;;;;;;;;;;5059481;28;20060;-70
2022/01/08 10:04:25;;;;;;;1.02;1.02;;;;;;;;;;5060820;28;20506;-69
2022/01/08 10:06:51;;;;;;;1.17;1.08;;;;;;;;;;5067128;28;20029;-69
2022/01/08 10:09:16;;;;;;;1.00;1.00;;;;;;;;;;5065772;28;20062;-69
2022/01/08 10:11:48;;;;;;;4.05;1.20;;;;;;;;;;5061826;28;20406;-69
2022/01/08 10:14:27;;;;;;;2.60;1.35;;;;;;;;;;5061835;28;20024;-69
2022/01/08 10:19:36;;;;;;;1.40;1.30;;;;;;;;;;5062574;28;20043;-69
2022/01/08 10:22:01;;;;;;;2.95;1.88;;;;;;;;;;5050211;28;20040;-69
2022/01/08 10:24:28;;;;;;;2.47;1.17;;;;;;;;;;5051539;28;20028;-69
2022/01/08 10:27:03;;;;;;;1.70;1.60;;;;;;;;;;5061262;28;20390;-69
2022/01/08 10:29:28;;;;;;;1.70;1.35;;;;;;;;;;5045694;28;20111;-69
2022/01/08 10:31:54;;;;;;;1.92;1.80;;;;;;;;;;5061955;28;20636;-69
2022/01/08 10:34:21;;;;;;;1.92;1.67;;;;;;;;;;5064235;28;20035;-69
2022/01/08 10:36:47;;;;;;;1.70;1.60;;;;;;;;;;5057252;28;20029;-69
2022/01/08 10:39:18;;;;;;;1.17;1.17;;;;;;;;;;5077312;28;20436;-69
2022/01/08 10:41:44;;;;;;;1.73;1.20;;;;;;;;;;5058816;28;20028;-69
2022/01/08 10:44:12;;;;;;;3.45;1.05;;;;;;;;;;5073745;28;20626;-69
2022/01/08 10:46:38;;;;;;;1.20;1.10;;;;;;;;;;5055847;28;20494;-69
2022/01/08 10:49:03;;;;;;;1.15;0.98;;;;;;;;;;5055423;28;20028;-69
2022/01/08 10:51:38;;;;;;;1.25;1.20;;;;;;;;;;5061092;28;20028;-69
2022/01/08 10:54:10;;;;;;;1.73;1.33;;;;;;;;;;5054098;28;20029;-69
2022/01/08 10:56:46;;;;;;;1.05;1.05;;;;;;;;;;5061008;28;20028;-69
2022/01/08 10:59:19;;;;;;;2.08;1.10;;;;;;;;;;5063640;28;20089;-69
2022/01/08 11:02:03;;;;;;;1.38;1.27;;;;;;;;;;5062123;28;20044;-69
2022/01/08 11:04:46;;;;;;;1.17;1.10;;;;;;;;;;5059880;28;20074;-69
2022/01/08 11:07:17;;;;;;;0.95;0.95;;;;;;;;;;5054147;28;20036;-69
2022/01/08 11:09:44;;;;;;;1.20;1.10;;;;;;;;;;5055399;28;20029;-69
2022/01/08 11:12:16;;;;;;;1.02;1.00;;;;;;;;;;5055061;28;20055;-69
2022/01/08 11:15:01;;;;;;;1.10;1.10;;;;;;;;;;5053630;28;20023;-69
2022/01/08 11:17:27;;;;;;;;;;;;;;;;;;5057592;28;20546;-69
2022/01/08 11:19:54;;;;;;;1.00;1.00;;;;;;;;;;5055015;28;19924;-69
2022/01/08 11:22:22;;;;;;;1.02;0.93;;;;;;;;;;5060745;28;20032;-69
2022/01/08 11:25:08;;;;;;;1.25;1.10;;;;;;;;;;5065233;28;20106;-69
2022/01/08 11:27:38;;;;;;;1.02;1.02;;;;;;;;;;5057736;28;20035;-69
2022/01/08 11:30:07;;;;;;;1.10;1.00;;;;;;;;;;5058765;28;20150;-68
2022/01/08 11:32:34;;;;;;;1.80;1.10;;;;;;;;;;5057875;28;20084;-68
2022/01/08 11:34:59;;;;;;;1.05;0.95;;;;;;;;;;5044628;28;20028;-69
2022/01/08 11:37:25;;;;;;;1.75;1.20;;;;;;;;;;5059377;28;20710;-69
2022/01/08 11:39:51;;;;;;;1.10;1.10;;;;;;;;;;5044746;28;20520;-68
2022/01/08 11:42:19;;;;;;;1.80;1.20;;;;;;;;;;5064680;28;20020;-69
2022/01/08 11:44:44;;;;;;;2.10;1.20;;;;;;;;;;5057770;28;20059;-68
2022/01/08 11:47:10;;;;;;;1.23;1.10;;;;;;;;;;5064061;28;20017;-68
2022/01/08 11:49:35;;;;;;;2.92;1.00;;;;;;;;;;5044062;28;20032;-68
2022/01/08 11:52:17;;;;;;;1.20;1.20;;;;;;;;;;5061059;28;20483;-69
2022/01/08 11:54:43;;;;;;;1.60;1.23;;;;;;;;;;5060919;28;20029;-69
2022/01/08 11:57:19;;;;;;;2.20;1.25;;;;;;;;;;5065425;28;20021;-68
2022/01/08 11:59:44;;;;;;;1.20;1.20;;;;;;;;;;5043279;28;20544;-68
2022/01/08 12:02:11;;;;;;;1.25;1.10;;;;;;;;;;5048393;28;20032;-68
2022/01/08 12:04:37;;;;;;;1.27;1.17;;;;;;;;;;5063028;28;20060;-68
2022/01/08 12:07:24;;;;;;;1.38;1.27;;;;;;;;;;5061090;28;20166;-68
2022/01/08 12:10:13;;;;;;;1.10;1.10;;;;;;;;;;5053608;28;20017;-68
2022/01/08 12:12:43;;;;;;;2.85;1.42;;;;;;;;;;5041418;28;20106;-69
2022/01/08 12:15:08;;;;;;;4.13;1.25;;;;;;;;;;5055837;28;20049;-69
2022/01/08 12:17:53;;;;;;;2.00;1.48;;;;;;;;;;5064384;28;20133;-69
2022/01/08 12:20:45;;;;;;;1.35;1.27;;;;;;;;;;5074939;28;20082;-68
2022/01/08 12:23:30;;;;;;;1.45;1.20;;;;;;;;;;5060204;28;20375;-69
2022/01/08 12:26:00;;;;;;;3.33;1.98;;;;;;;;;;5059695;28;20064;-69
2022/01/08 12:28:39;;;;;;;14.20;6.90;;;;;;;;;;5046183;28;20697;-68
2022/01/08 12:31:38;;;;;;;3.95;1.40;;;;;;;;;;5059342;28;20076;-68
2022/01/08 12:34:25;;;;;;;2.67;2.17;;;;;;;;;;5044529;28;20020;-68
2022/01/08 12:36:56;;;;;;;4.70;2.40;;;;;;;;;;5060187;28;20024;-68
2022/01/08 12:39:49;;;;;;;2.03;1.60;;;;;;;;;;5060204;28;20036;-69
2022/01/08 12:42:24;;;;;;;3.30;2.70;;;;;;;;;;5057781;28;20499;-68
2022/01/08 12:44:59;;;;;;;;;;;;;;;;;;5054266;28;20171;-69
2022/01/08 12:47:40;;;;;;;4.75;2.40;;;;;;;;;;5062262;28;19951;-68
2022/01/08 12:50:34;;;;;;;2.63;2.05;;;;;;;;;;5053059;28;20036;-69
2022/01/08 12:53:05;;;;;;;3.08;2.15;;;;;;;;;;5058911;28;20127;-68
2022/01/08 12:55:34;;;;;;;3.08;2.28;;;;;;;;;;5053255;28;20494;-69
2022/01/08 12:57:59;;;;;;;2.20;1.67;;;;;;;;;;5053546;28;20040;-69
2022/01/08 13:00:24;;;;;;;5.05;2.55;;;;;;;;;;5049889;28;20052;-69
2022/01/08 13:02:50;;;;;;;4.05;2.30;;;;;;;;;;5054892;28;20036;-69
2022/01/08 13:05:15;;;;;;;3.22;2.72;;;;;;;;;;5059938;28;20479;-69
2022/01/08 13:07:50;;;;;;;2.75;2.55;;;;;;;;;;5058993;28;20393;-69
2022/01/08 13:10:18;;;;;;;3.28;2.97;;;;;;;;;;5060284;28;20486;-69
2022/01/08 13:13:00;;;;;;;4.78;3.25;;;;;;;;;;5059708;28;20078;-69
2022/01/08 13:15:30;;;;;;;2.42;2.13;;;;;;;;;;5061050;28;20625;-69
2022/01/08 13:18:15;;;;;;;3.70;2.10;;;;;;;;;;5051594;28;20029;-69
2022/01/08 13:20:40;;;;;;;2.65;2.45;;;;;;;;;;5052318;28;20055;-69
2022/01/08 13:23:05;;;;;;;1.70;1.60;;;;;;;;;;5055832;28;20028;-69
2022/01/08 13:25:31;;;;;;;3.45;2.28;;;;;;;;;;5043948;28;20025;-69
2022/01/08 13:27:56;;;;;;;2.83;2.03;;;;;;;;;;5059390;28;20024;-69
2022/01/08 13:30:25;;;;;;;5.35;2.60;;;;;;;;;;5061855;28;20033;-69
2022/01/08 13:33:01;;;;;;;3.95;2.67;;;;;;;;;;5066398;28;20125;-69
2022/01/08 13:35:26;;;;;;;2.50;2.15;;;;;;;;;;5063177;28;20510;-69
2022/01/08 13:37:52;;;;;;;1.80;1.70;;;;;;;;;;5063786;28;20111;-69
2022/01/08 13:40:17;;;;;;;4.57;3.35;;;;;;;;;;5061897;28;20125;-69
2022/01/08 13:42:44;;;;;;;1.95;1.45;;;;;;;;;;5062863;28;20090;-69
2022/01/08 13:45:17;;;;;;;4.38;1.88;;;;;;;;;;5065771;28;20032;-69
2022/01/08 13:47:44;;;;;;;1.63;1.42;;;;;;;;;;5062688;28;20078;-69
2022/01/08 13:50:16;;;;;;;1.90;1.40;;;;;;;;;;5067700;28;20531;-69
2022/01/08 13:52:45;;;;;;;3.10;1.60;;;;;;;;;;5062865;28;20082;-69
2022/01/08 13:55:19;;;;;;;1.98;1.50;;;;;;;;;;5051536;28;20032;-68
2022/01/08 13:57:53;;;;;;;3.33;1.50;;;;;;;;;;5060649;28;20104;-69
2022/01/08 14:00:21;;;;;;;1.40;1.30;;;;;;;;;;5061643;28;20543;-69
2022/01/08 14:02:53;;;;;;;1.30;1.20;;;;;;;;;;5073823;28;20024;-70
2022/01/08 14:05:19;;;;;;;5.13;1.70;;;;;;;;;;5074673;28;20092;-69
2022/01/08 14:07:44;;;;;;;3.75;1.55;;;;;;;;;;5061914;28;20032;-69
2022/01/08 14:10:11;;;;;;;1.30;1.20;;;;;;;;;;5069949;28;20342;-70
2022/01/08 14:12:36;;;;;;;1.50;1.40;;;;;;;;;;5076785;28;20424;-70
2022/01/08 14:15:04;;;;;;;2.88;1.20;;;;;;;;;;5075855;28;20028;-70
2022/01/08 14:17:31;;;;;;;1.40;1.20;;;;;;;;;;5076179;28;20386;-70
2022/01/08 14:19:58;;;;;;;1.30;1.08;;;;;;;;;;5076772;28;20040;-70
2022/01/08 14:22:23;;;;;;;1.52;1.23;;;;;;;;;;5050168;28;20398;-70
2022/01/08 14:24:50;;;;;;;3.40;1.33;;;;;;;;;;5066975;28;20035;-70
2022/01/08 14:27:17;;;;;;;0.90;0.90;;;;;;;;;;5070159;28;20021;-69
2022/01/08 14:29:47;;;;;;;3.67;1.23;;;;;;;;;;5073184;28;20016;-69
2022/01/08 14:32:13;;;;;;;1.85;1.00;;;;;;;;;;5071690;28;20499;-70
2022/01/08 14:34:46;;;;;;;2.28;1.00;;;;;;;;;;5077520;28;20383;-70
2022/01/08 14:37:16;;;;;;;1.02;0.93;;;;;;;;;;5064428;28;20059;-69
2022/01/08 14:39:42;;;;;;;2.28;1.60;;;;;;;;;;5068508;28;20482;-69
2022/01/08 14:42:14;;;;;;;0.98;0.90;;;;;;;;;;5074864;28;20021;-69
2022/01/08 14:44:51;;;;;;;0.90;0.90;;;;;;;;;;5074122;28;20028;-70
2022/01/08 14:47:38;;;;;;;1.23;1.13;;;;;;;;;;5078248;28;20028;-69
2022/01/08 14:50:06;;;;;;;1.20;1.10;;;;;;;;;;5071993;28;20108;-70
2022/01/08 14:52:31;;;;;;;1.30;1.17;;;;;;;;;;5081724;28;20396;-69
2022/01/08 14:54:56;;;;;;;0.88;0.88;;;;;;;;;;5080696;28;20050;-69
2022/01/08 14:57:22;;;;;;;1.35;1.15;;;;;;;;;;5073587;28;20016;-69
2022/01/08 14:59:47;;;;;;;6.60;3.55;;;;;;;;;;5063666;28;20506;-70
2022/01/08 15:02:12;;;;;;;1.42;1.27;;;;;;;;;;5067000;28;20036;-69
2022/01/08 15:04:38;;;;;;;1.20;1.20;;;;;;;;;;5065027;28;20013;-70